createdAt,value
2018-12-11T00:00:29.431Z,120.83
2018-12-11T00:02:55.701Z,127.00
2018-12-11T00:05:22.242Z,123.43
2018-12-11T00:07:48.897Z,129.93
2018-12-11T00:10:15.882Z,120.90
2018-12-11T00:12:43.297Z,124.73
2018-12-11T00:15:09.809Z,128.97
2018-12-11T00:17:36.322Z,129.07
2018-12-11T00:20:05.013Z,120.90
2018-12-11T00:22:32.647Z,116.60
2018-12-11T00:25:00.794Z,116.53
2018-12-11T00:27:27.477Z,117.07
2018-12-11T00:29:54.650Z,119.03
2018-12-11T00:32:22.109Z,119.20
2018-12-11T00:34:48.768Z,127.70
2018-12-11T00:37:15.139Z,113.57
2018-12-11T00:39:41.746Z,128.33
2018-12-11T00:42:08.248Z,126.10
2018-12-11T00:44:34.631Z,123.53
2018-12-11T00:47:01.015Z,120.53
2018-12-11T00:49:27.899Z,121.00
2018-12-11T00:51:54.596Z,125.77
2018-12-11T00:54:22.392Z,130.40
2018-12-11T00:56:48.795Z,116.73
2018-12-11T00:59:15.819Z,123.60
2018-12-11T01:01:42.186Z,128.00
2018-12-11T01:04:08.553Z,120.03
2018-12-11T01:06:34.817Z,124.60
2018-12-11T01:09:01.099Z,125.37
2018-12-11T01:11:27.467Z,127.20
2018-12-11T01:13:53.965Z,121.07
2018-12-11T01:16:20.199Z,119.37
2018-12-11T01:18:46.566Z,126.00
2018-12-11T01:21:12.882Z,113.53
2018-12-11T01:23:39.356Z,130.77
2018-12-11T01:26:05.884Z,118.40
2018-12-11T01:28:32.162Z,121.57
2018-12-11T01:30:58.503Z,128.60
2018-12-11T01:33:24.941Z,115.63
2018-12-11T01:35:51.099Z,115.90
2018-12-11T01:38:17.541Z,114.70
2018-12-11T01:40:44.017Z,111.03
2018-12-11T01:43:10.464Z,111.10
2018-12-11T01:45:36.868Z,109.40
2018-12-11T01:48:03.297Z,129.17
2018-12-11T01:50:29.546Z,114.43
2018-12-11T01:52:56.058Z,114.60
2018-12-11T01:55:22.405Z,132.07
2018-12-11T01:57:48.736Z,120.00
2018-12-11T02:00:15.048Z,112.37
2018-12-11T02:02:41.382Z,121.20
2018-12-11T02:05:07.907Z,113.80
2018-12-11T02:07:34.354Z,113.63
2018-12-11T02:10:00.846Z,110.67
2018-12-11T02:12:27.222Z,127.93
2018-12-11T02:14:54.493Z,112.97
2018-12-11T02:17:23.834Z,116.40
2018-12-11T02:19:50.188Z,124.07
2018-12-11T02:22:16.521Z,120.50
2018-12-11T02:24:42.877Z,115.63
2018-12-11T02:27:09.188Z,118.93
2018-12-11T02:29:35.517Z,117.10
2018-12-11T02:32:01.886Z,119.13
2018-12-11T02:34:28.433Z,119.40
2018-12-11T02:36:54.668Z,127.63
2018-12-11T02:39:21.024Z,119.37
2018-12-11T02:41:47.485Z,130.40
2018-12-11T02:44:13.948Z,127.17
2018-12-11T02:46:40.329Z,120.73
2018-12-11T02:49:06.691Z,118.17
2018-12-11T02:51:33.004Z,127.83
2018-12-11T02:53:59.367Z,118.37
2018-12-11T02:56:25.780Z,116.40
2018-12-11T02:58:52.141Z,124.60
2018-12-11T03:01:18.723Z,129.53
2018-12-11T03:03:45.074Z,116.37
2018-12-11T03:06:11.449Z,120.47
2018-12-11T03:08:37.828Z,125.47
2018-12-11T03:11:04.168Z,130.53
2018-12-11T03:13:30.504Z,112.70
2018-12-11T03:15:56.834Z,124.53
2018-12-11T03:18:23.154Z,123.03
2018-12-11T03:20:49.475Z,127.20
2018-12-11T03:23:15.912Z,133.30
2018-12-11T03:25:42.336Z,122.30
2018-12-11T03:28:08.783Z,121.33
2018-12-11T03:30:35.694Z,125.13
2018-12-11T03:33:02.027Z,114.63
2018-12-11T03:35:28.886Z,114.50
2018-12-11T03:37:55.225Z,121.87
2018-12-11T03:40:21.592Z,121.83
2018-12-11T03:42:47.996Z,125.07
2018-12-11T03:45:14.422Z,127.97
2018-12-11T03:47:40.796Z,125.17
2018-12-11T03:50:08.416Z,112.37
2018-12-11T03:52:34.840Z,121.43
2018-12-11T03:55:01.215Z,123.40
2018-12-11T03:57:27.558Z,125.60
2018-12-11T03:59:53.850Z,119.10
2018-12-11T04:02:20.175Z,121.03
2018-12-11T04:04:46.529Z,120.10
2018-12-11T04:07:13.102Z,120.40
2018-12-11T04:09:39.480Z,131.00
2018-12-11T04:12:06.418Z,113.10
2018-12-11T04:14:32.808Z,121.17
2018-12-11T04:16:59.219Z,116.53
2018-12-11T04:19:25.449Z,144.13
2018-12-11T04:21:51.834Z,121.53
2018-12-11T04:24:18.204Z,129.77
2018-12-11T04:26:44.498Z,123.67
2018-12-11T04:29:11.115Z,125.83
2018-12-11T04:31:37.667Z,126.03
2018-12-11T04:34:04.029Z,117.70
2018-12-11T04:36:30.211Z,116.70
2018-12-11T04:38:56.659Z,133.43
2018-12-11T04:41:23.090Z,121.00
2018-12-11T04:43:49.459Z,115.13
2018-12-11T04:46:15.959Z,129.50
2018-12-11T04:48:42.346Z,117.87
2018-12-11T04:51:08.936Z,118.57
2018-12-11T04:53:35.359Z,112.17
2018-12-11T04:56:01.730Z,119.63
2018-12-11T04:58:28.039Z,118.20
2018-12-11T05:00:54.388Z,121.20
2018-12-11T05:03:20.699Z,114.20
2018-12-11T05:05:47.000Z,122.23
2018-12-11T05:08:13.917Z,122.67
2018-12-11T05:10:40.131Z,116.50
2018-12-11T05:13:07.558Z,118.27
2018-12-11T05:15:33.826Z,112.90
2018-12-11T05:18:00.110Z,113.37
2018-12-11T05:20:26.395Z,123.60
2018-12-11T05:22:53.201Z,113.47
2018-12-11T05:25:19.459Z,117.10
2018-12-11T05:27:45.780Z,112.07
2018-12-11T05:30:12.134Z,120.17
2018-12-11T05:32:38.470Z,111.77
2018-12-11T05:35:05.116Z,120.70
2018-12-11T05:37:31.405Z,117.67
2018-12-11T05:39:57.751Z,113.80
2018-12-11T05:42:24.565Z,113.87
2018-12-11T05:44:50.798Z,125.97
2018-12-11T05:47:17.035Z,123.77
2018-12-11T05:49:43.276Z,118.00
2018-12-11T05:52:09.497Z,113.43
2018-12-11T05:54:35.735Z,120.07
2018-12-11T05:57:02.101Z,118.03
2018-12-11T05:59:28.578Z,117.90
2018-12-11T06:01:54.807Z,115.50
2018-12-11T06:04:21.407Z,122.70
2018-12-11T06:06:47.832Z,117.13
2018-12-11T06:09:14.209Z,115.47
2018-12-11T06:11:40.552Z,122.03
2018-12-11T06:16:59.476Z,112.43
2018-12-11T06:19:25.921Z,111.47
2018-12-11T06:21:52.125Z,115.40
2018-12-11T06:24:19.144Z,111.60
2018-12-11T06:26:45.356Z,109.37
2018-12-11T06:29:11.746Z,110.40
2018-12-11T06:31:37.955Z,114.60
2018-12-11T06:34:05.883Z,128.80
2018-12-11T06:36:33.259Z,116.20
2018-12-11T06:38:59.478Z,115.33
2018-12-11T06:41:25.706Z,110.33
2018-12-11T06:43:51.941Z,118.93
2018-12-11T06:46:18.175Z,109.87
2018-12-11T06:51:36.922Z,109.50
2018-12-11T06:54:03.179Z,111.00
2018-12-11T06:56:29.539Z,120.10
2018-12-11T06:58:55.889Z,109.73
2018-12-11T07:01:22.757Z,107.13
2018-12-11T07:03:48.992Z,108.93
2018-12-11T07:06:15.576Z,122.10
2018-12-11T07:08:41.909Z,115.27
2018-12-11T07:11:08.240Z,110.77
2018-12-11T07:13:34.519Z,121.20
2018-12-11T07:16:00.719Z,108.63
2018-12-11T07:18:27.028Z,113.20
2018-12-11T07:20:53.272Z,111.37
2018-12-11T07:23:19.531Z,112.90
2018-12-11T07:25:45.792Z,117.00
2018-12-11T07:28:11.978Z,117.53
2018-12-11T07:30:38.224Z,109.97
2018-12-11T07:33:04.498Z,110.70
2018-12-11T07:35:31.314Z,108.17
2018-12-11T07:37:57.527Z,107.67
2018-12-11T07:40:24.011Z,111.23
2018-12-11T07:42:50.303Z,115.97
2018-12-11T07:45:16.498Z,113.70
2018-12-11T07:47:42.740Z,114.53
2018-12-11T07:50:09.016Z,122.00
2018-12-11T07:52:35.218Z,115.30
2018-12-11T07:55:01.584Z,119.43
2018-12-11T07:57:28.179Z,108.97
2018-12-11T07:59:54.473Z,111.10
2018-12-11T08:02:20.772Z,113.00
2018-12-11T08:04:46.946Z,117.47
2018-12-11T08:07:13.184Z,116.07
2018-12-11T08:09:39.456Z,113.60
2018-12-11T08:12:08.379Z,126.97
2018-12-11T08:14:34.960Z,117.00
2018-12-11T08:17:01.213Z,118.90
2018-12-11T08:19:27.402Z,114.57
2018-12-11T08:21:53.571Z,115.87
2018-12-11T08:24:19.905Z,113.60
2018-12-11T08:26:46.282Z,120.67
2018-12-11T08:29:12.452Z,107.67
2018-12-11T08:31:38.677Z,133.07
2018-12-11T08:34:04.891Z,115.10
2018-12-11T08:36:31.106Z,119.47
2018-12-11T08:38:57.277Z,108.80
2018-12-11T08:41:23.466Z,116.80
2018-12-11T08:43:49.723Z,116.50
2018-12-11T08:46:15.906Z,128.20
2018-12-11T08:48:42.233Z,128.67
2018-12-11T08:51:08.514Z,121.43
2018-12-11T08:53:34.790Z,112.27
2018-12-11T08:56:01.018Z,120.37
2018-12-11T08:58:27.228Z,115.87
2018-12-11T09:00:53.419Z,127.27
2018-12-11T09:03:20.191Z,118.67
2018-12-11T09:05:47.297Z,121.93
2018-12-11T09:08:13.539Z,120.23
2018-12-11T09:10:39.877Z,114.00
2018-12-11T09:13:06.121Z,122.03
2018-12-11T09:15:32.426Z,122.40
2018-12-11T09:17:58.866Z,117.10
2018-12-11T09:20:25.056Z,113.70
2018-12-11T09:22:51.888Z,123.47
2018-12-11T09:25:18.269Z,117.03
2018-12-11T09:27:44.601Z,120.83
2018-12-11T09:30:10.929Z,117.23
2018-12-11T09:32:37.111Z,131.23
2018-12-11T09:35:03.953Z,124.07
2018-12-11T09:37:30.251Z,130.30
2018-12-11T09:39:56.433Z,133.33
2018-12-11T09:42:27.917Z,120.60
2018-12-11T09:44:52.508Z,120.27
2018-12-11T09:47:18.690Z,121.90
2018-12-11T09:49:44.868Z,133.53
2018-12-11T09:52:11.131Z,122.67
2018-12-11T09:54:37.352Z,115.73
2018-12-11T09:57:04.375Z,123.70
2018-12-11T09:59:30.596Z,113.33
2018-12-11T10:01:57.383Z,126.53
2018-12-11T10:04:23.705Z,117.23
2018-12-11T10:06:49.920Z,122.53
2018-12-11T10:09:16.102Z,114.50
2018-12-11T10:11:42.303Z,116.27
2018-12-11T10:14:08.583Z,119.03
2018-12-11T10:16:34.780Z,116.13
2018-12-11T10:19:01.038Z,120.70
2018-12-11T10:27:12.355Z,111.57
2018-12-11T10:29:38.673Z,117.43
2018-12-11T10:32:04.880Z,106.97
2018-12-11T10:34:31.067Z,116.30
2018-12-11T10:39:49.663Z,116.57
2018-12-11T10:42:15.901Z,116.43
2018-12-11T10:44:42.564Z,112.67
2018-12-11T10:47:08.752Z,112.90
2018-12-11T10:49:34.943Z,120.37
2018-12-11T10:52:01.197Z,110.87
2018-12-11T10:54:27.391Z,125.47
2018-12-11T10:56:53.656Z,114.50
2018-12-11T10:59:19.945Z,115.33
2018-12-11T11:01:46.215Z,111.23
2018-12-11T11:04:12.478Z,112.67
2018-12-11T11:06:39.326Z,110.53
2018-12-11T11:09:06.143Z,124.97
2018-12-11T11:11:32.377Z,116.50
2018-12-11T11:13:58.566Z,110.83
2018-12-11T11:16:24.843Z,117.60
2018-12-11T11:18:51.059Z,115.97
2018-12-11T11:21:17.274Z,110.20
2018-12-11T11:23:44.020Z,109.27
2018-12-11T11:26:10.389Z,119.30
2018-12-11T11:28:36.719Z,109.00
2018-12-11T11:31:03.049Z,109.80
2018-12-11T11:33:29.384Z,108.57
2018-12-11T11:35:55.649Z,116.07
2018-12-11T11:38:21.856Z,106.90
2018-12-11T11:40:48.168Z,107.53
2018-12-11T11:43:14.499Z,109.80
2018-12-11T11:45:40.729Z,105.80
2018-12-11T11:48:08.324Z,113.33
2018-12-11T11:50:35.220Z,106.70
2018-12-11T11:53:01.510Z,110.57
2018-12-11T11:55:27.842Z,104.43
2018-12-11T11:57:54.037Z,107.90
2018-12-11T12:00:20.451Z,109.27
2018-12-11T12:02:46.680Z,110.93
2018-12-11T12:05:12.883Z,109.27
2018-12-11T12:07:40.229Z,117.77
2018-12-11T12:10:07.186Z,103.70
2018-12-11T12:12:33.539Z,108.97
2018-12-11T12:14:59.748Z,107.47
2018-12-11T12:17:25.950Z,108.20
2018-12-11T12:19:52.223Z,105.03
2018-12-11T12:22:18.482Z,109.53
2018-12-11T12:24:44.711Z,101.07
2018-12-11T12:27:11.012Z,103.07
2018-12-11T12:29:37.291Z,107.43
2018-12-11T12:32:03.535Z,105.93
2018-12-11T12:34:29.737Z,99.47
2018-12-11T12:36:55.967Z,102.40
2018-12-11T12:39:22.299Z,99.20
2018-12-11T12:41:48.584Z,98.53
2018-12-11T12:44:14.781Z,98.70
2018-12-11T12:46:41.195Z,99.60
2018-12-11T12:49:07.396Z,101.17
2018-12-11T12:51:33.582Z,98.80
2018-12-11T12:53:59.764Z,103.53
2018-12-11T12:56:26.139Z,98.40
2018-12-11T12:58:53.343Z,102.50
2018-12-11T13:01:19.631Z,103.97
2018-12-11T13:03:46.641Z,97.90
2018-12-11T13:06:12.915Z,102.60
2018-12-11T13:08:39.718Z,112.03
2018-12-11T13:11:06.037Z,102.00
2018-12-11T13:13:32.235Z,102.80
2018-12-11T13:15:58.422Z,106.63
2018-12-11T13:18:25.374Z,104.10
2018-12-11T13:20:51.582Z,102.13
2018-12-11T13:23:17.772Z,101.40
2018-12-11T13:25:44.549Z,105.87
2018-12-11T13:28:10.750Z,104.80
2018-12-11T13:30:36.973Z,103.37
2018-12-11T13:33:03.367Z,105.90
2018-12-11T13:35:29.700Z,101.27
2018-12-11T13:37:56.007Z,99.87
2018-12-11T13:40:23.290Z,98.47
2018-12-11T13:42:49.495Z,101.73
2018-12-11T13:45:15.801Z,101.43
2018-12-11T13:47:42.174Z,103.33
2018-12-11T13:50:08.707Z,104.73
2018-12-11T13:52:34.920Z,101.77
2018-12-11T13:55:01.117Z,101.63
2018-12-11T13:57:34.343Z,99.20
2018-12-11T14:00:00.525Z,104.63
2018-12-11T14:02:26.742Z,101.10
2018-12-11T14:04:52.931Z,104.77
2018-12-11T14:07:19.926Z,103.87
2018-12-11T14:09:46.316Z,102.57
2018-12-11T14:12:12.502Z,100.93
2018-12-11T14:14:38.724Z,104.90
2018-12-11T14:17:05.001Z,99.87
2018-12-11T14:19:31.319Z,105.20
2018-12-11T14:21:57.765Z,101.47
2018-12-11T14:24:23.983Z,110.03
2018-12-11T14:26:50.254Z,100.40
2018-12-11T14:29:16.488Z,102.93
2018-12-11T14:31:43.246Z,104.17
2018-12-11T14:34:09.458Z,99.50
2018-12-11T14:36:36.293Z,106.57
2018-12-11T14:39:05.907Z,100.40
2018-12-11T14:41:32.142Z,103.73
2018-12-11T14:43:58.528Z,99.47
2018-12-11T14:46:24.734Z,103.10
2018-12-11T14:48:51.238Z,99.97
2018-12-11T14:51:17.521Z,101.13
2018-12-11T14:53:43.714Z,99.67
2018-12-11T14:56:10.110Z,101.27
2018-12-11T14:58:36.515Z,101.80
2018-12-11T15:01:02.891Z,105.40
2018-12-11T15:03:29.113Z,99.23
2018-12-11T15:05:55.329Z,98.63
2018-12-11T15:08:21.549Z,100.50
2018-12-11T15:10:47.771Z,109.47
2018-12-11T15:13:14.078Z,101.50
2018-12-11T15:15:40.257Z,102.20
2018-12-11T15:18:06.602Z,102.83
2018-12-11T15:20:32.978Z,100.97
2018-12-11T15:22:59.141Z,105.87
2018-12-11T15:25:25.536Z,101.83
2018-12-11T15:27:51.713Z,101.87
2018-12-11T15:30:17.900Z,103.40
2018-12-11T15:32:44.425Z,107.30
2018-12-11T15:35:10.664Z,101.77
2018-12-11T15:37:36.901Z,103.20
2018-12-11T15:40:04.676Z,101.37
2018-12-11T15:42:30.855Z,103.17
2018-12-11T15:44:57.095Z,100.27
2018-12-11T15:47:23.456Z,104.40
2018-12-11T15:49:49.714Z,105.27
2018-12-11T15:52:16.036Z,103.53
2018-12-11T15:54:42.379Z,99.87
2018-12-11T15:57:08.801Z,101.00
2018-12-11T15:59:35.008Z,103.57
2018-12-11T16:02:01.313Z,101.17
2018-12-11T16:04:27.735Z,102.10
2018-12-11T16:06:54.052Z,104.43
2018-12-11T16:09:22.330Z,102.57
2018-12-11T16:11:48.534Z,102.07
2018-12-11T16:14:14.788Z,103.63
2018-12-11T16:16:41.417Z,101.17
2018-12-11T16:19:07.619Z,103.00
2018-12-11T16:21:33.816Z,102.47
2018-12-11T16:24:04.174Z,102.63
2018-12-11T16:26:30.376Z,102.77
2018-12-11T16:28:56.615Z,104.30
2018-12-11T16:31:22.840Z,106.30
2018-12-11T16:33:49.099Z,102.10
2018-12-11T16:36:15.580Z,103.60
2018-12-11T16:38:41.914Z,101.80
2018-12-11T16:41:08.209Z,103.53
2018-12-11T16:43:34.526Z,105.60
2018-12-11T16:46:00.746Z,103.43
2018-12-11T16:48:26.971Z,105.77
2018-12-11T16:50:53.284Z,101.87
2018-12-11T16:53:19.653Z,102.27
2018-12-11T16:55:46.121Z,104.87
2018-12-11T16:58:12.337Z,104.30
2018-12-11T17:00:38.695Z,106.00
2018-12-11T17:03:04.944Z,103.43
2018-12-11T17:05:31.275Z,100.47
2018-12-11T17:07:57.494Z,101.90
2018-12-11T17:10:23.922Z,104.37
2018-12-11T17:12:50.155Z,104.67
2018-12-11T17:15:17.348Z,106.70
2018-12-11T17:17:43.833Z,104.57
2018-12-11T17:20:10.214Z,103.67
2018-12-11T17:22:36.518Z,108.30
2018-12-11T17:25:03.810Z,106.37
2018-12-11T17:27:30.175Z,104.27
2018-12-11T17:29:56.489Z,102.33
2018-12-11T17:32:22.738Z,103.53
2018-12-11T17:34:49.059Z,102.30
2018-12-11T17:37:15.394Z,102.53
2018-12-11T17:39:41.617Z,102.87
2018-12-11T17:42:07.825Z,101.50
2018-12-11T17:44:34.169Z,103.07
2018-12-11T17:47:00.471Z,101.30
2018-12-11T17:49:26.773Z,104.17
2018-12-11T17:51:52.991Z,103.53
2018-12-11T17:54:19.403Z,104.37
2018-12-11T17:56:46.752Z,110.03
2018-12-11T17:59:13.365Z,104.33
2018-12-11T18:01:40.438Z,106.50
2018-12-11T18:04:06.726Z,104.67
2018-12-11T18:06:32.923Z,104.47
2018-12-11T18:08:59.424Z,108.67
2018-12-11T18:11:25.851Z,102.67
2018-12-11T18:13:52.243Z,107.87
2018-12-11T18:16:18.479Z,107.00
2018-12-11T18:18:44.689Z,108.20
2018-12-11T18:21:11.182Z,105.10
2018-12-11T18:23:37.415Z,103.33
2018-12-11T18:26:03.882Z,103.47
2018-12-11T18:28:30.135Z,103.10
2018-12-11T18:30:56.661Z,106.90
2018-12-11T18:33:23.417Z,106.20
2018-12-11T18:35:50.282Z,104.17
2018-12-11T18:38:16.780Z,107.50
2018-12-11T18:40:43.688Z,108.10
2018-12-11T18:43:10.143Z,105.27
2018-12-11T18:51:24.195Z,107.17
2018-12-11T18:53:51.178Z,105.87
2018-12-11T18:56:17.646Z,103.30
2018-12-11T18:58:44.124Z,106.17
2018-12-11T19:01:10.542Z,110.70
2018-12-11T19:03:37.414Z,110.50
2018-12-11T19:06:03.832Z,103.27
2018-12-11T19:08:30.093Z,106.70
2018-12-11T19:10:56.427Z,108.80
2018-12-11T19:13:22.661Z,105.30
2018-12-11T19:15:49.344Z,105.47
2018-12-11T19:18:15.789Z,103.17
2018-12-11T19:20:42.001Z,103.63
2018-12-11T19:23:12.410Z,109.60
2018-12-11T19:25:38.763Z,104.57
2018-12-11T19:28:05.199Z,105.37
2018-12-11T19:30:31.438Z,104.17
2018-12-11T19:32:58.561Z,104.87
2018-12-11T19:35:25.193Z,106.37
2018-12-11T19:37:51.574Z,110.33
2018-12-11T19:40:17.875Z,104.67
2018-12-11T19:42:44.210Z,108.23
2018-12-11T19:45:10.606Z,104.30
2018-12-11T19:47:36.903Z,107.07
2018-12-11T19:50:04.658Z,109.47
2018-12-11T19:52:31.028Z,106.10
2018-12-11T19:54:57.375Z,105.83
2018-12-11T19:57:23.818Z,107.30
2018-12-11T19:59:50.145Z,109.20
2018-12-11T20:02:16.432Z,106.70
2018-12-11T20:04:43.881Z,105.60
2018-12-11T20:07:10.066Z,106.97
2018-12-11T20:09:38.435Z,109.37
2018-12-11T20:12:04.793Z,110.57
2018-12-11T20:14:31.078Z,106.60
2018-12-11T20:16:57.375Z,105.47
2018-12-11T20:19:23.656Z,105.97
2018-12-11T20:21:50.027Z,106.17
2018-12-11T20:24:16.222Z,107.67
2018-12-11T20:26:42.646Z,115.37
2018-12-11T20:29:08.965Z,106.60
2018-12-11T20:31:35.261Z,113.20
2018-12-11T20:34:01.668Z,109.90
2018-12-11T20:36:27.911Z,113.50
2018-12-11T20:38:54.351Z,107.47
2018-12-11T20:41:21.046Z,107.90
2018-12-11T20:43:47.496Z,108.70
2018-12-11T20:46:15.226Z,107.97
2018-12-11T20:48:41.774Z,106.27
2018-12-11T20:51:07.995Z,108.10
2018-12-11T20:53:34.230Z,104.60
2018-12-11T20:56:00.516Z,109.37
2018-12-11T20:58:26.789Z,108.03
2018-12-11T21:00:53.119Z,107.10
2018-12-11T21:03:19.451Z,106.20
2018-12-11T21:05:45.621Z,108.57
2018-12-11T21:08:12.111Z,110.07
2018-12-11T21:10:38.903Z,110.60
2018-12-11T21:13:05.222Z,109.40
2018-12-11T21:15:31.420Z,107.87
2018-12-11T21:17:58.975Z,104.70
2018-12-11T21:20:25.404Z,110.30
2018-12-11T21:22:51.683Z,105.97
2018-12-11T21:25:17.962Z,107.67
2018-12-11T21:27:44.190Z,108.00
2018-12-11T21:30:10.839Z,111.57
2018-12-11T21:32:37.107Z,108.00
2018-12-11T21:35:04.259Z,108.00
2018-12-11T21:37:31.413Z,109.50
2018-12-11T21:39:59.031Z,109.40
2018-12-11T21:42:25.218Z,109.43
2018-12-11T21:44:52.063Z,119.10
2018-12-11T21:47:18.337Z,109.47
2018-12-11T21:49:44.650Z,107.63
2018-12-11T21:52:10.882Z,107.87
2018-12-11T21:54:37.126Z,106.00
2018-12-11T21:57:03.492Z,105.93
2018-12-11T21:59:29.783Z,113.10
2018-12-11T22:01:55.959Z,107.07
2018-12-11T22:04:23.332Z,110.67
2018-12-11T22:06:49.709Z,115.47
2018-12-11T22:09:16.008Z,112.80
2018-12-11T22:11:42.257Z,108.83
2018-12-11T22:14:08.438Z,109.77
2018-12-11T22:16:34.583Z,106.40
2018-12-11T22:19:00.790Z,108.67
2018-12-11T22:21:26.968Z,107.37
2018-12-11T22:23:53.183Z,107.03
2018-12-11T22:26:19.506Z,109.03
2018-12-11T22:28:45.933Z,109.37
2018-12-11T22:31:12.201Z,111.80
2018-12-11T22:33:38.473Z,110.27
2018-12-11T22:36:04.743Z,111.63
2018-12-11T22:38:31.084Z,107.73
2018-12-11T22:40:58.317Z,108.77
2018-12-11T22:43:24.755Z,111.57
2018-12-11T22:45:51.660Z,107.23
2018-12-11T22:48:18.073Z,106.53
2018-12-11T22:50:44.278Z,106.07
2018-12-11T22:53:10.897Z,108.07
2018-12-11T22:55:37.777Z,111.60
2018-12-11T22:58:05.087Z,107.00
2018-12-11T23:03:24.158Z,109.70
2018-12-11T23:05:50.705Z,107.60
2018-12-11T23:08:17.244Z,111.13
2018-12-11T23:10:43.482Z,109.07
2018-12-11T23:13:09.827Z,111.20
2018-12-11T23:15:36.199Z,113.77
2018-12-11T23:18:02.967Z,106.53
2018-12-11T23:20:29.332Z,109.70
2018-12-11T23:22:55.730Z,106.00
2018-12-11T23:25:22.059Z,113.43
2018-12-11T23:27:48.255Z,110.77
2018-12-11T23:30:14.573Z,106.60
2018-12-11T23:32:40.855Z,111.67
2018-12-11T23:35:07.768Z,109.30
2018-12-11T23:37:34.174Z,108.97
2018-12-11T23:40:00.478Z,109.73
2018-12-11T23:42:26.751Z,109.10
2018-12-11T23:44:54.107Z,108.63
2018-12-11T23:47:21.514Z,107.97
2018-12-11T23:49:48.809Z,106.87
2018-12-11T23:52:15.164Z,106.43
2018-12-11T23:54:42.637Z,110.73
2018-12-11T23:57:08.897Z,107.37
2018-12-11T23:59:35.312Z,106.20
